Time;durP1;ratioP1;P1;durP2;ratioP2;P2;SDS_P1;SDS_P2;PMS_P1;PMS_P2;Temp;Humidity;BMP_temperature;BMP_pressure;BME280_temperature;BME280_humidity;BME280_pressure;Samples;Min_cycle;Max_cycle;Signal;HPM_P1;HPM_P2
2022/05/29 00:00:46;;;;;;;109.53;68.20;;;;;;;26.15;49.48;99973.75;1709391;83;22735;-56
2022/05/29 00:03:15;;;;;;;107.43;68.67;;;;;;;26.11;49.89;99973.30;1705848;82;21011;-56
2022/05/29 00:05:45;;;;;;;110.97;67.43;;;;;;;26.10;50.34;99973.03;1680077;85;20975;-59
2022/05/29 00:08:15;;;;;;;113.20;66.63;;;;;;;26.14;51.01;99977.52;1681571;84;21439;-55
2022/05/29 00:10:42;;;;;;;117.37;68.40;;;;;;;26.13;51.62;99972.45;1680517;85;21061;-56
2022/05/29 00:13:13;;;;;;;107.10;66.80;;;;;;;26.12;51.78;99968.20;1681059;85;21145;-56
2022/05/29 00:15:41;;;;;;;105.83;65.10;;;;;;;26.04;52.46;99971.00;1680631;85;20888;-61
2022/05/29 00:18:08;;;;;;;93.90;61.63;;;;;;;25.93;53.69;99969.04;1681812;85;21491;-56
2022/05/29 00:20:37;;;;;;;99.50;59.07;;;;;;;26.19;53.13;99960.60;1680191;83;21008;-62
2022/05/29 00:23:05;;;;;;;104.40;60.30;;;;;;;26.18;52.54;99965.70;1676870;84;21142;-55
2022/05/29 00:25:32;;;;;;;96.47;58.43;;;;;;;26.04;53.04;99963.54;1680621;85;22776;-57
2022/05/29 00:27:59;;;;;;;94.50;59.30;;;;;;;25.91;53.31;99967.22;1681188;85;21051;-56
2022/05/29 00:30:27;;;;;;;94.83;58.17;;;;;;;25.99;53.31;99960.42;1681529;85;20998;-62
2022/05/29 00:32:56;;;;;;;99.13;60.73;;;;;;;25.96;53.89;99961.78;1716891;83;21095;-57
2022/05/29 00:35:24;;;;;;;97.43;63.30;;;;;;;25.93;54.20;99958.36;1716894;83;21064;-57
2022/05/29 00:37:53;;;;;;;95.63;61.43;;;;;;;25.88;54.40;99966.46;1716711;83;21294;-56
2022/05/29 00:40:33;;;;;;;101.80;61.50;;;;;;;25.68;54.81;99972.07;1716920;82;21084;-56
2022/05/29 00:43:00;;;;;;;137.07;76.20;;;;;;;25.67;55.25;99968.61;1716464;83;21391;-55
2022/05/29 00:45:29;;;;;;;136.47;85.73;;;;;;;25.68;55.48;99965.39;1716547;83;20926;-58
2022/05/29 00:47:57;;;;;;;177.23;104.43;;;;;;;25.76;55.33;99964.77;1689171;83;21124;-56
2022/05/29 00:50:25;;;;;;;168.63;107.27;;;;;;;25.76;55.52;99963.43;1716871;83;21124;-56
2022/05/29 00:52:52;;;;;;;192.27;115.20;;;;;;;25.63;56.58;99961.48;1716187;82;21073;-56
2022/05/29 00:55:23;;;;;;;189.67;107.30;;;;;;;25.69;56.39;99949.66;1716466;83;21325;-57
2022/05/29 00:57:57;;;;;;;187.65;108.50;;;;;;;25.52;57.48;99966.17;1717236;82;21963;-56
2022/05/29 01:00:26;;;;;;;176.70;107.57;;;;;;;25.56;57.88;99954.38;1716839;82;21052;-56
2022/05/29 01:02:55;;;;;;;184.53;108.67;;;;;;;25.58;58.28;99955.69;1716913;83;21704;-56
2022/05/29 01:05:24;;;;;;;172.60;104.83;;;;;;;25.73;57.59;99950.66;1760849;80;21661;-55
2022/05/29 01:08:16;;;;;;;176.80;104.57;;;;;;;25.56;58.68;99954.38;1767975;81;21390;-56
2022/05/29 01:10:58;;;;;;;182.37;101.43;;;;;;;25.40;59.60;99956.48;1768043;80;20962;-56
2022/05/29 01:13:48;;;;;;;;;;;;;;;25.61;59.18;99940.43;1771359;80;22187;-56
2022/05/29 01:16:47;;;;;;;170.83;102.50;;;;;;;25.53;59.57;99948.28;1759594;81;21296;-57
2022/05/29 01:19:56;;;;;;;167.57;98.07;;;;;;;25.52;59.99;99948.83;1709369;83;21058;-57
2022/05/29 01:22:47;;;;;;;158.57;96.10;;;;;;;25.47;60.27;99963.59;1715371;83;21068;-56
2022/05/29 01:25:44;;;;;;;167.87;99.67;;;;;;;25.23;63.00;99955.66;1714600;83;22139;-58
2022/05/29 01:28:28;;;;;;;169.13;99.67;;;;;;;25.13;63.96;99961.13;1715086;83;21882;-60
2022/05/29 01:31:44;;;;;;;166.47;100.40;;;;;;;25.10;63.85;99962.48;1704022;83;22506;-56
2022/05/29 01:34:29;;;;;;;181.13;109.23;;;;;;;25.24;63.64;99955.91;1714514;83;21401;-56
2022/05/29 01:37:21;;;;;;;185.70;108.87;;;;;;;25.22;64.00;99956.72;1704700;83;21023;-56
2022/05/29 01:40:12;;;;;;;182.63;108.70;;;;;;;25.28;63.11;99970.25;1713682;83;22349;-56
2022/05/29 01:42:46;;;;;;;183.62;106.67;;;;;;;25.22;62.71;99974.06;1714431;83;21261;-63
2022/05/29 01:45:25;;;;;;;186.53;107.97;;;;;;;25.09;63.69;99974.75;1714720;83;21648;-56
2022/05/29 01:48:11;;;;;;;168.43;101.47;;;;;;;25.12;64.58;99975.55;1714813;82;21503;-57
2022/05/29 01:50:43;;;;;;;162.87;100.07;;;;;;;25.33;63.18;99967.50;1714442;83;21056;-57
2022/05/29 01:53:16;;;;;;;160.67;98.60;;;;;;;25.24;63.54;99966.58;1714331;83;21553;-57
2022/05/29 01:55:47;;;;;;;166.57;95.77;;;;;;;25.10;64.57;99967.02;1714278;83;21649;-57
2022/05/29 01:58:19;;;;;;;151.15;95.65;;;;;;;24.94;65.23;99975.19;1713834;83;21903;-57
2022/05/29 02:00:47;;;;;;;139.47;89.20;;;;;;;24.91;65.12;99970.41;1714108;83;21073;-59
2022/05/29 02:03:18;;;;;;;145.30;94.20;;;;;;;24.78;65.60;99977.78;1707931;83;20997;-57
2022/05/29 02:05:51;;;;;;;152.07;93.80;;;;;;;24.78;65.23;99979.66;1712965;83;21507;-57
2022/05/29 02:08:32;;;;;;;139.22;86.60;;;;;;;24.73;65.88;99983.16;1713808;83;27264;-57
2022/05/29 02:11:06;;;;;;;144.87;87.27;;;;;;;24.65;66.55;99979.23;1714826;83;21239;-56
2022/05/29 02:14:00;;;;;;;132.77;85.70;;;;;;;24.74;66.24;99982.89;1713827;83;20954;-58
2022/05/29 02:16:55;;;;;;;119.50;77.00;;;;;;;24.72;66.44;99980.23;1715090;83;21553;-56
2022/05/29 02:19:27;;;;;;;111.30;71.47;;;;;;;24.68;66.54;99984.55;1714451;83;21065;-57
2022/05/29 02:22:10;;;;;;;;;;;;;;;24.81;64.04;99982.52;1715935;83;20918;-57
2022/05/29 02:24:44;;;;;;;94.57;62.23;;;;;;;24.86;62.51;99988.36;1713041;83;20980;-57
2022/05/29 02:27:48;;;;;;;87.87;56.53;;;;;;;24.93;60.33;99984.27;1713589;83;21076;-57
2022/05/29 02:30:15;;;;;;;86.97;55.97;;;;;;;24.93;59.80;99990.14;1701673;83;21057;-60
2022/05/29 02:32:49;;;;;;;103.13;59.93;;;;;;;24.89;59.23;99993.09;1714089;83;21630;-56
2022/05/29 02:35:36;;;;;;;87.37;58.83;;;;;;;24.70;59.27;99991.20;1714598;83;21077;-56
2022/05/29 02:38:08;;;;;;;100.40;60.83;;;;;;;24.68;59.54;99994.67;1701364;83;21303;-61
2022/05/29 02:40:58;;;;;;;119.13;73.90;;;;;;;24.75;58.85;99995.13;1709533;83;21106;-57
2022/05/29 02:44:03;;;;;;;162.73;95.73;;;;;;;25.01;56.95;100005.52;1714820;83;21131;-61
2022/05/29 02:46:46;;;;;;;206.93;108.37;;;;;;;25.10;56.46;100005.16;1713095;83;21510;-56
2022/05/29 02:49:36;;;;;;;221.47;125.07;;;;;;;25.04;57.07;100015.61;1701351;83;21002;-59
2022/05/29 02:52:08;;;;;;;222.67;125.20;;;;;;;25.48;56.47;100016.66;1713240;83;21229;-56
2022/05/29 02:54:35;;;;;;;234.83;132.70;;;;;;;25.85;55.74;100020.44;1711823;83;21596;-58
2022/05/29 02:57:05;;;;;;;242.33;134.97;;;;;;;25.50;57.14;100020.94;1711916;83;21148;-56
2022/05/29 02:59:43;;;;;;;243.87;137.83;;;;;;;26.10;54.54;100024.61;1712868;83;21136;-57
2022/05/29 03:02:39;;;;;;;249.43;137.87;;;;;;;26.15;54.35;100027.73;1713868;83;21018;-64
2022/05/29 03:05:31;;;;;;;274.37;156.97;;;;;;;26.22;53.48;100024.14;1681336;84;21288;-56
2022/05/29 03:08:35;;;;;;;248.10;140.10;;;;;;;25.89;54.54;100021.45;1694652;83;21544;-65
2022/05/29 03:11:13;;;;;;;249.03;142.13;;;;;;;25.84;55.01;100020.20;1708882;83;21588;-58
2022/05/29 03:13:54;;;;;;;262.90;141.93;;;;;;;25.84;55.41;100022.08;1711498;83;20902;-58
2022/05/29 03:16:48;;;;;;;236.60;132.53;;;;;;;25.80;55.90;100023.20;1708836;83;21080;-56
2022/05/29 03:19:30;;;;;;;213.50;120.93;;;;;;;25.67;57.22;100023.34;1708671;83;21154;-58
2022/05/29 03:22:24;;;;;;;221.50;129.37;;;;;;;25.51;58.57;100022.52;1680799;83;20982;-65
2022/05/29 03:25:05;;;;;;;197.57;120.27;;;;;;;25.62;59.27;100017.29;1707675;83;21036;-58
2022/05/29 03:27:43;;;;;;;183.37;106.80;;;;;;;25.45;61.75;100015.11;1710591;83;21120;-57
2022/05/29 03:30:32;;;;;;;192.60;110.67;;;;;;;25.68;60.42;100024.13;1684286;83;20922;-58
2022/05/29 03:33:01;;;;;;;196.80;108.87;;;;;;;25.60;60.08;100026.91;1709334;83;22660;-59
2022/05/29 03:35:34;;;;;;;171.90;103.03;;;;;;;25.57;59.62;100024.02;1709721;83;21431;-60
2022/05/29 03:38:03;;;;;;;174.67;103.53;;;;;;;25.76;58.72;100028.84;1692711;83;21013;-57
2022/05/29 03:40:32;;;;;;;174.57;107.90;;;;;;;25.98;57.47;100034.92;1708478;83;21052;-57
2022/05/29 03:42:59;;;;;;;186.50;109.47;;;;;;;26.65;57.01;100039.99;1692511;83;21092;-64
2022/05/29 03:45:27;;;;;;;185.27;108.30;;;;;;;27.56;53.20;100040.61;1711640;83;21314;-56
2022/05/29 03:47:55;;;;;;;184.10;110.17;;;;;;;28.35;49.34;100036.10;1711253;83;21522;-57
2022/05/29 03:50:23;;;;;;;170.90;106.23;;;;;;;28.56;47.09;100039.06;1712521;83;21049;-63
2022/05/29 03:52:51;;;;;;;173.73;100.53;;;;;;;28.31;47.08;100037.81;1712491;83;21481;-57
2022/05/29 03:55:24;;;;;;;168.27;106.53;;;;;;;28.22;46.29;100041.77;1712276;83;21064;-58
2022/05/29 03:57:51;;;;;;;182.17;109.47;;;;;;;27.87;46.64;100046.89;1711260;83;21147;-57
2022/05/29 04:00:19;;;;;;;175.10;107.73;;;;;;;27.64;47.45;100043.91;1710038;83;21100;-63
2022/05/29 04:02:47;;;;;;;169.73;103.73;;;;;;;27.51;47.30;100043.41;1708423;83;21462;-57
2022/05/29 04:05:20;;;;;;;158.80;94.10;;;;;;;27.32;48.07;100048.90;1704518;83;21515;-58
2022/05/29 04:13:20;;;;;;;134.77;79.60;;;;;;;27.19;49.30;100058.51;1701501;84;21318;-57
2022/05/29 04:15:47;;;;;;;131.17;77.03;;;;;;;27.33;49.15;100060.63;1705280;84;21131;-59
2022/05/29 04:18:17;;;;;;;135.93;79.57;;;;;;;27.35;48.54;100054.97;1705820;83;21378;-56
2022/05/29 04:20:45;;;;;;;110.03;70.33;;;;;;;27.41;48.88;100049.22;1701971;84;21062;-55
2022/05/29 04:23:13;;;;;;;110.80;65.10;;;;;;;27.70;47.89;100050.75;1699238;84;21160;-55
2022/05/29 04:25:43;;;;;;;93.37;56.63;;;;;;;27.85;47.33;100042.39;1700888;84;21053;-62
2022/05/29 04:28:10;;;;;;;96.17;59.23;;;;;;;27.79;46.86;100039.58;1699462;84;21108;-55
2022/05/29 04:30:38;;;;;;;89.40;56.20;;;;;;;27.69;46.65;100041.11;1699398;84;21124;-59
2022/05/29 04:33:05;;;;;;;75.93;48.03;;;;;;;28.05;46.30;100047.03;1701834;83;21511;-55
2022/05/29 04:35:41;;;;;;;67.50;43.70;;;;;;;28.36;44.96;100045.72;1701831;84;21719;-56
2022/05/29 04:38:08;;;;;;;72.00;43.00;;;;;;;28.47;44.18;100048.41;1698912;83;20974;-55
2022/05/29 04:40:37;;;;;;;58.13;40.63;;;;;;;28.38;43.88;100039.55;1698519;84;21478;-56
2022/05/29 04:43:06;;;;;;;55.97;35.80;;;;;;;28.33;43.72;100033.71;1702364;84;21342;-56
2022/05/29 04:45:35;;;;;;;51.83;32.30;;;;;;;28.40;43.45;100033.86;1698877;84;21089;-56
2022/05/29 04:48:04;;;;;;;43.33;29.47;;;;;;;28.46;43.23;100031.30;1697531;82;21148;-56
2022/05/29 04:50:31;;;;;;;46.77;29.63;;;;;;;28.10;43.61;100037.52;1756671;80;21060;-57
2022/05/29 04:52:58;;;;;;;44.17;29.70;;;;;;;27.98;44.55;100042.09;1759922;81;21297;-55
2022/05/29 04:55:25;;;;;;;46.50;31.00;;;;;;;28.13;44.19;100045.73;1760169;81;21108;-57
2022/05/29 04:57:53;;;;;;;41.43;29.27;;;;;;;28.25;43.70;100051.09;1759200;80;21483;-56
2022/05/29 05:00:21;;;;;;;39.53;27.37;;;;;;;28.02;43.87;100052.44;1759386;81;21505;-63
2022/05/29 05:02:48;;;;;;;36.93;26.30;;;;;;;27.67;44.21;100048.67;1759213;81;20915;-55
2022/05/29 05:05:16;;;;;;;38.40;26.93;;;;;;;27.63;44.79;100049.03;1759898;80;21033;-57
2022/05/29 05:07:44;;;;;;;40.37;27.20;;;;;;;27.57;45.77;100052.34;1759295;81;21015;-55
2022/05/29 05:10:13;;;;;;;40.13;27.43;;;;;;;27.77;45.52;100049.00;1759305;81;21005;-56
2022/05/29 05:12:44;;;;;;;37.70;26.23;;;;;;;28.07;45.24;100046.16;1759521;81;21457;-54
2022/05/29 05:15:13;;;;;;;40.37;28.00;;;;;;;28.32;44.23;100044.75;1759982;81;21053;-55
2022/05/29 05:17:40;;;;;;;38.10;26.23;;;;;;;28.53;43.66;100041.05;1760189;80;21073;-58
2022/05/29 05:20:08;;;;;;;39.80;24.20;;;;;;;28.47;43.56;100043.61;1759844;81;21084;-57
2022/05/29 05:22:35;;;;;;;39.60;24.30;;;;;;;28.61;43.30;100038.95;1759884;81;21724;-56
2022/05/29 05:25:04;;;;;;;31.33;22.90;;;;;;;28.77;43.15;100036.64;1760157;81;21271;-55
2022/05/29 05:27:32;;;;;;;30.43;20.27;;;;;;;29.11;43.04;100027.94;1760201;81;20914;-56
2022/05/29 05:29:59;;;;;;;32.67;20.47;;;;;;;29.49;42.01;100032.73;1760471;81;21065;-55
2022/05/29 05:32:26;;;;;;;29.33;19.37;;;;;;;30.00;40.93;100036.53;1758921;81;21749;-59
2022/05/29 05:34:53;;;;;;;26.87;16.60;;;;;;;30.42;39.63;100015.27;1759402;81;21843;-56
2022/05/29 05:37:21;;;;;;;25.50;17.03;;;;;;;30.93;39.11;100016.98;1760263;81;21061;-56
2022/05/29 05:39:48;;;;;;;23.70;14.90;;;;;;;31.49;37.78;100016.81;1760125;81;20958;-55
2022/05/29 05:42:15;;;;;;;21.20;15.27;;;;;;;32.34;36.42;100016.33;1759304;80;21139;-62
2022/05/29 05:44:42;;;;;;;21.10;14.70;;;;;;;32.96;34.75;100013.16;1760109;81;21448;-55
2022/05/29 05:47:11;;;;;;;16.93;13.63;;;;;;;33.13;33.43;100016.95;1760470;81;20973;-57
2022/05/29 05:49:40;;;;;;;17.50;13.73;;;;;;;33.18;33.44;100015.91;1759853;81;22391;-56
2022/05/29 05:52:07;;;;;;;21.70;14.90;;;;;;;33.09;33.12;100010.66;1760378;81;20954;-62
2022/05/29 05:54:35;;;;;;;20.40;14.20;;;;;;;32.74;33.25;100017.08;1759298;81;21498;-56
2022/05/29 05:57:05;;;;;;;18.50;14.10;;;;;;;32.41;33.20;100023.91;1760255;81;20993;-55
2022/05/29 05:59:35;;;;;;;18.60;13.70;;;;;;;32.47;32.76;100025.27;1760187;81;21033;-55
2022/05/29 06:02:04;;;;;;;17.55;12.90;;;;;;;32.03;33.02;100030.87;1758983;81;21838;-57
2022/05/29 06:04:32;;;;;;;22.23;13.17;;;;;;;32.14;33.93;100023.37;1758546;81;21401;-56
2022/05/29 06:07:00;;;;;;;18.87;13.20;;;;;;;32.34;33.25;100032.52;1766682;81;21040;-57
2022/05/29 06:09:27;;;;;;;19.37;12.47;;;;;;;32.55;32.49;100031.13;1768245;81;20937;-56
2022/05/29 06:11:54;;;;;;;15.00;11.87;;;;;;;32.86;32.08;100028.43;1768508;81;20941;-58
2022/05/29 06:14:22;;;;;;;19.10;13.47;;;;;;;32.65;32.29;100019.86;1767321;81;22306;-63
2022/05/29 06:16:50;;;;;;;16.23;11.73;;;;;;;32.84;32.11;100022.00;1768368;80;20967;-56
2022/05/29 06:19:20;;;;;;;14.87;11.10;;;;;;;33.09;32.00;100031.47;1768852;81;20986;-56
2022/05/29 06:21:48;;;;;;;12.53;9.20;;;;;;;33.35;31.07;100025.12;1768263;80;20982;-57
2022/05/29 06:24:15;;;;;;;12.80;8.20;;;;;;;33.68;31.50;100032.80;1768180;80;21061;-63
2022/05/29 06:26:42;;;;;;;11.33;8.13;;;;;;;34.19;30.50;100028.42;1767969;80;22345;-56
2022/05/29 06:29:10;;;;;;;12.03;7.17;;;;;;;34.40;29.99;100028.19;1768760;80;21134;-55
2022/05/29 06:31:40;;;;;;;8.90;6.58;;;;;;;34.33;29.06;100030.71;1768991;80;20981;-55
2022/05/29 06:34:07;;;;;;;9.85;6.62;;;;;;;33.95;29.27;100038.78;1768777;80;21079;-56
2022/05/29 06:36:34;;;;;;;10.77;6.60;;;;;;;33.55;29.74;100044.23;1767846;80;20994;-62
2022/05/29 06:39:02;;;;;;;8.23;5.43;;;;;;;33.30;30.09;100037.52;1768993;80;21387;-56
2022/05/29 06:41:30;;;;;;;9.90;6.20;;;;;;;33.24;30.36;100030.77;1768453;80;20907;-57
2022/05/29 06:43:58;;;;;;;10.13;6.57;;;;;;;33.18;30.48;100031.55;1757131;80;21028;-56
2022/05/29 06:46:26;;;;;;;8.13;6.40;;;;;;;33.23;30.05;100031.91;1768329;80;20941;-57
2022/05/29 06:48:54;;;;;;;9.07;6.23;;;;;;;33.10;30.49;100028.42;1767620;80;21115;-55
2022/05/29 06:51:22;;;;;;;10.47;6.73;;;;;;;33.14;30.79;100029.88;1768355;81;21759;-55
2022/05/29 06:53:55;;;;;;;9.78;6.62;;;;;;;33.24;30.41;100033.47;1768490;80;21106;-55
2022/05/29 06:56:22;;;;;;;9.45;7.25;;;;;;;33.72;30.27;100034.50;1768563;80;21040;-63
2022/05/29 06:58:50;;;;;;;8.93;6.20;;;;;;;34.05;29.45;100036.94;1769053;81;21063;-55
2022/05/29 07:07:03;;;;;;;10.53;8.18;;;;;;;34.34;29.63;100032.27;1768906;81;20894;-55
2022/05/29 07:09:32;;;;;;;14.78;9.43;;;;;;;34.58;29.24;100026.70;1767631;81;21036;-63
2022/05/29 07:12:10;;;;;;;15.65;10.30;;;;;;;34.29;29.36;100028.48;1750246;81;20988;-57
2022/05/29 07:14:44;;;;;;;17.92;13.43;;;;;;;34.13;29.73;100033.85;1768565;80;20984;-57
2022/05/29 07:17:11;;;;;;;15.88;11.53;;;;;;;34.11;29.96;100046.39;1768646;81;21193;-58
2022/05/29 07:19:40;;;;;;;13.20;10.25;;;;;;;34.22;30.09;100043.18;1768081;81;21048;-65
2022/05/29 07:22:07;;;;;;;19.07;12.68;;;;;;;34.02;29.82;100049.83;1768339;80;21084;-57
2022/05/29 07:24:35;;;;;;;16.90;11.85;;;;;;;34.01;30.10;100056.34;1768722;81;21844;-56
2022/05/29 07:27:04;;;;;;;18.05;12.18;;;;;;;33.82;30.23;100057.53;1768815;81;21487;-55
2022/05/29 07:29:31;;;;;;;17.17;12.03;;;;;;;33.73;30.26;100059.61;1767895;80;21501;-61
2022/05/29 07:31:58;;;;;;;15.95;10.68;;;;;;;33.58;30.37;100059.20;1763447;80;22268;-61
2022/05/29 07:34:26;;;;;;;15.00;11.13;;;;;;;33.36;31.19;100061.81;1768278;81;21319;-56
2022/05/29 07:36:57;;;;;;;18.73;11.87;;;;;;;33.33;30.90;100060.34;1768627;81;21010;-55
2022/05/29 07:39:24;;;;;;;20.57;11.95;;;;;;;33.23;30.55;100066.24;1767804;80;20946;-58
2022/05/29 07:44:37;;;;;;;16.80;11.40;;;;;;;32.90;31.16;100058.45;1768866;81;20975;-56
2022/05/29 07:47:04;;;;;;;15.80;11.60;;;;;;;32.54;31.43;100054.37;1769236;80;21416;-56
2022/05/29 07:49:31;;;;;;;16.10;12.07;;;;;;;32.21;31.73;100047.11;1769177;80;21507;-58
2022/05/29 07:51:58;;;;;;;22.03;14.40;;;;;;;32.07;32.54;100043.35;1768243;81;20973;-66
2022/05/29 07:54:26;;;;;;;23.43;16.30;;;;;;;32.26;32.10;100047.45;1768845;81;21696;-56
2022/05/29 07:56:53;;;;;;;25.63;19.87;;;;;;;32.19;32.04;100043.38;1768328;80;20961;-56
2022/05/29 07:59:21;;;;;;;31.10;22.73;;;;;;;32.29;32.18;100048.92;1768863;80;21476;-58
2022/05/29 08:01:48;;;;;;;35.77;27.43;;;;;;;32.38;32.16;100051.52;1768136;80;21055;-66
2022/05/29 08:04:16;;;;;;;53.17;36.70;;;;;;;32.43;32.10;100059.45;1768337;81;21968;-65
2022/05/29 08:06:43;;;;;;;62.50;45.43;;;;;;;32.48;32.16;100059.22;1765183;80;21615;-57
2022/05/29 08:09:10;;;;;;;60.47;45.13;;;;;;;32.55;31.68;100054.06;1759671;81;20891;-57
2022/05/29 08:11:38;;;;;;;56.90;42.73;;;;;;;32.41;32.14;100057.63;1759496;81;21028;-63
2022/05/29 08:14:06;;;;;;;48.30;34.33;;;;;;;33.37;31.40;100065.30;1759653;81;20961;-65
2022/05/29 08:16:34;;;;;;;38.43;26.53;;;;;;;33.85;30.43;100059.55;1759023;80;20887;-56
2022/05/29 08:19:02;;;;;;;30.40;22.03;;;;;;;34.35;30.06;100063.61;1760026;80;22476;-56
2022/05/29 08:21:29;;;;;;;20.27;13.73;;;;;;;34.81;29.45;100065.34;1759599;81;20977;-65
2022/05/29 08:32:13;;;;;;;13.87;8.93;;;;;;;34.41;29.53;100067.64;1734800;81;21532;-55
2022/05/29 08:34:42;;;;;;;13.30;8.63;;;;;;;34.26;29.51;100068.41;1759376;80;21856;-59
2022/05/29 08:37:10;;;;;;;9.83;6.97;;;;;;;34.25;29.29;100064.92;1759327;81;21025;-56
2022/05/29 20:00:35;;;;;;;24.13;11.13;;;;;;;23.48;54.04;100371.23;1788602;78;21734;-56
2022/05/29 20:03:04;;;;;;;20.83;10.40;;;;;;;23.44;53.69;100368.84;1787273;79;21362;-57
2022/05/29 20:05:31;;;;;;;19.33;9.30;;;;;;;23.23;54.65;100374.69;1791657;79;21148;-65
2022/05/29 20:07:58;;;;;;;21.57;9.60;;;;;;;23.33;54.69;100377.34;1781070;79;21006;-56
2022/05/29 20:10:26;;;;;;;18.80;9.57;;;;;;;22.98;55.58;100384.20;1769279;79;21307;-57
2022/05/29 20:12:54;;;;;;;18.67;8.57;;;;;;;23.09;55.85;100391.67;1781695;79;22225;-64
2022/05/29 20:15:23;;;;;;;25.30;10.67;;;;;;;22.89;56.50;100394.25;1770936;79;21030;-58
2022/05/29 20:17:52;;;;;;;22.57;11.13;;;;;;;22.78;57.25;100397.41;1778090;78;21662;-59
2022/05/29 20:20:20;;;;;;;24.80;11.27;;;;;;;22.76;57.83;100392.86;1763445;78;21667;-59
2022/05/29 20:22:47;;;;;;;28.30;11.80;;;;;;;22.87;58.01;100395.83;1770175;78;21675;-59
2022/05/29 20:25:14;;;;;;;24.57;11.13;;;;;;;22.27;61.46;100390.51;1772971;79;21618;-58
2022/05/29 20:27:42;;;;;;;29.23;13.03;;;;;;;22.62;60.50;100392.56;1782076;79;21738;-64
2022/05/29 20:30:11;;;;;;;24.60;12.23;;;;;;;22.87;58.11;100397.69;1791206;79;21690;-58
2022/05/29 20:32:39;;;;;;;28.63;12.43;;;;;;;22.78;58.31;100398.73;1770183;79;21728;-56
2022/05/29 20:35:07;;;;;;;27.43;12.80;;;;;;;22.68;59.37;100398.69;1785047;79;21678;-56
2022/05/29 20:37:34;;;;;;;22.13;10.30;;;;;;;22.74;59.43;100395.80;1775828;79;21690;-60
2022/05/29 20:40:03;;;;;;;19.07;10.17;;;;;;;22.50;60.42;100390.13;1786886;78;21753;-57
2022/05/29 20:42:31;;;;;;;21.43;10.40;;;;;;;22.83;59.21;100393.42;1784323;79;21677;-57
2022/05/29 20:44:59;;;;;;;25.30;11.40;;;;;;;22.97;58.35;100393.23;1781954;79;21764;-57
2022/05/29 20:47:29;;;;;;;27.03;12.60;;;;;;;22.94;58.41;100398.28;1778837;78;22239;-59
2022/05/29 20:49:57;;;;;;;31.57;15.53;;;;;;;23.29;56.78;100388.24;1790658;79;21672;-57
2022/05/29 20:52:24;;;;;;;30.80;16.97;;;;;;;23.28;55.72;100391.97;1774604;79;22201;-57
2022/05/29 20:54:51;;;;;;;29.73;14.57;;;;;;;23.18;56.52;100389.28;1775353;79;22465;-62
2022/05/29 20:57:19;;;;;;;26.93;13.20;;;;;;;23.17;56.75;100383.70;1767273;79;21749;-57
2022/05/29 20:59:46;;;;;;;18.13;8.67;;;;;;;23.02;57.63;100390.58;1781951;79;22516;-57
2022/05/29 21:02:18;;;;;;;14.33;8.30;;;;;;;23.14;56.84;100399.64;1739572;79;21911;-60
2022/05/29 21:04:44;;;;;;;14.23;6.77;;;;;;;23.14;56.84;100399.64;1736103;80;20984;-56
2022/05/29 21:07:14;;;;;;;10.37;5.50;;;;;;;23.45;56.37;100396.53;1702700;83;21722;-57
2022/05/29 21:09:42;;;;;;;10.13;4.93;;;;;;;22.69;59.97;100405.59;1720611;82;21692;-64
2022/05/29 21:12:12;;;;;;;14.00;6.13;;;;;;;22.63;61.18;100403.98;1718623;82;22175;-57
2022/05/29 21:14:41;;;;;;;7.70;3.83;;;;;;;23.17;57.79;100404.45;1713280;82;22226;-58
2022/05/29 21:17:08;;;;;;;7.00;3.53;;;;;;;22.50;62.66;100399.42;1716129;83;21643;-57
2022/05/29 21:19:37;;;;;;;6.87;3.13;;;;;;;22.44;63.94;100410.27;1710177;83;22239;-58
2022/05/29 21:22:06;;;;;;;6.70;3.40;;;;;;;23.40;57.69;100409.01;1717127;82;21710;-65
2022/05/29 21:24:33;;;;;;;7.60;3.70;;;;;;;23.15;57.79;100412.44;1721531;82;22528;-57
2022/05/29 21:27:00;;;;;;;8.13;4.07;;;;;;;23.22;57.76;100406.31;1740606;81;21666;-59
2022/05/29 21:29:28;;;;;;;13.80;5.97;;;;;;;23.22;57.76;100406.31;1713390;82;21667;-67
2022/05/29 21:31:55;;;;;;;14.80;7.50;;;;;;;21.86;67.50;100402.18;1708487;82;22274;-57
2022/05/29 21:34:24;;;;;;;15.63;7.80;;;;;;;21.86;67.50;100402.18;1705594;82;21542;-59
2022/05/29 21:37:52;;;;;;;14.07;7.20;;;;;;;21.85;68.13;100409.84;1744244;81;22169;-59
2022/05/29 21:39:28;;;;;;;13.33;5.93;;;;;;;22.52;66.08;100403.93;1727345;81;21743;-59
2022/05/29 21:41:53;;;;;;;8.93;5.47;;;;;;;22.66;63.42;100407.46;1698715;82;22081;-57
2022/05/29 21:44:21;;;;;;;9.80;5.27;;;;;;;22.76;63.34;100402.96;1684290;83;21785;-58
2022/05/29 21:46:48;;;;;;;14.33;5.77;;;;;;;22.41;66.85;100402.81;1700980;82;21750;-57
2022/05/29 21:49:17;;;;;;;12.67;7.00;;;;;;;21.90;70.88;100401.14;1703868;82;21695;-58
2022/05/29 21:51:44;;;;;;;16.77;8.00;;;;;;;21.59;75.24;100399.55;1704239;82;22192;-59
2022/05/29 21:54:11;;;;;;;19.27;9.50;;;;;;;21.42;79.17;100401.00;1715694;82;21823;-58
2022/05/29 21:56:39;;;;;;;21.93;10.93;;;;;;;21.39;80.49;100397.52;1714286;82;21659;-57
2022/05/29 21:59:06;;;;;;;24.83;11.43;;;;;;;21.45;80.65;100394.41;1712392;83;21767;-57
2022/05/29 22:01:34;;;;;;;27.30;12.50;;;;;;;21.82;79.49;100391.77;1714582;82;21591;-65
2022/05/29 22:04:01;;;;;;;36.27;14.10;;;;;;;22.32;70.51;100387.90;1736497;82;21652;-60
2022/05/29 22:06:32;;;;;;;32.77;13.63;;;;;;;22.32;70.51;100387.90;1707759;82;21655;-65
2022/05/29 22:09:00;;;;;;;32.42;15.05;;;;;;;21.90;71.66;100379.91;1712651;82;26501;-58
2022/05/29 22:11:30;;;;;;;32.17;15.90;;;;;;;21.67;76.12;100376.56;1703580;84;20960;-58
2022/05/29 22:13:57;;;;;;;31.10;16.30;;;;;;;21.44;80.06;100376.87;1704545;82;22193;-57
2022/05/29 22:16:28;;;;;;;33.07;17.37;;;;;;;21.73;79.49;100375.53;1712097;83;21830;-65
2022/05/29 22:18:57;;;;;;;35.30;17.67;;;;;;;22.53;70.29;100373.64;1720352;82;21535;-57
2022/05/29 22:21:27;;;;;;;34.30;17.67;;;;;;;22.25;71.42;100367.41;1739345;81;22294;-59
2022/05/29 22:23:57;;;;;;;35.60;17.60;;;;;;;21.70;72.36;100365.95;1736552;80;21676;-57
2022/05/29 22:26:26;;;;;;;35.60;16.37;;;;;;;21.07;86.90;100370.94;1738245;80;21514;-58
2022/05/29 22:28:54;;;;;;;32.63;16.23;;;;;;;21.24;85.07;100372.95;1738879;81;21696;-57
2022/05/29 22:31:44;;;;;;;36.17;18.10;;;;;;;21.24;85.07;100372.95;1741389;81;22081;-57
2022/05/29 22:34:16;;;;;;;32.93;16.93;;;;;;;21.37;85.27;100373.12;1710013;82;21492;-65
2022/05/29 22:37:07;;;;;;;35.70;16.37;;;;;;;21.25;85.22;100366.63;1721482;82;22649;-65
2022/05/29 22:39:34;;;;;;;33.70;15.10;;;;;;;21.41;84.11;100369.44;1722393;82;21828;-57
2022/05/29 22:42:02;;;;;;;32.07;15.33;;;;;;;21.35;84.00;100371.23;1721101;83;21369;-58
2022/05/29 22:44:30;;;;;;;31.63;15.60;;;;;;;21.27;85.23;100375.11;1711516;82;21813;-59
2022/05/29 22:47:33;;;;;;;30.40;14.00;;;;;;;21.36;83.54;100378.12;1711391;82;21485;-57
2022/05/29 22:50:10;;;;;;;28.20;12.87;;;;;;;21.36;83.54;100378.12;1716729;82;21623;-58
2022/05/29 22:52:44;;;;;;;30.90;14.00;;;;;;;21.21;85.10;100371.33;1701821;82;21694;-56
2022/05/29 22:55:13;;;;;;;32.57;16.10;;;;;;;21.22;85.87;100368.97;1703242;82;21689;-56
2022/05/29 22:57:43;;;;;;;28.10;14.20;;;;;;;20.99;88.31;100388.09;1740575;80;21757;-59
2022/05/29 23:00:18;;;;;;;26.43;13.07;;;;;;;20.95;89.24;100381.69;1740707;81;21764;-58
2022/05/29 23:02:48;;;;;;;31.43;14.80;;;;;;;21.01;88.70;100379.34;1732713;82;22232;-59
2022/05/29 23:05:16;;;;;;;27.63;14.10;;;;;;;20.84;89.44;100383.95;1696678;83;21986;-58
2022/05/29 23:07:44;;;;;;;33.17;14.57;;;;;;;20.62;94.10;100379.44;1729837;82;21749;-63
2022/05/29 23:10:12;;;;;;;32.43;14.23;;;;;;;20.38;99.00;100392.58;1729859;82;21529;-57
2022/05/29 23:12:41;;;;;;;25.03;13.57;;;;;;;20.38;99.00;100392.58;1719292;82;21494;-57